createdAt,value
2023-01-28T00:00:12.456Z,103021.91
2023-01-28T00:02:48.691Z,103014.13
2023-01-28T00:05:24.687Z,103063.91
2023-01-28T00:07:52.335Z,103046.94
2023-01-28T00:10:30.463Z,103099.84
2023-01-28T00:13:08.806Z,103032.97
2023-01-28T00:15:35.704Z,103059.59
2023-01-28T00:18:02.774Z,103037.75
2023-01-28T00:20:35.357Z,103033.44
2023-01-28T00:23:12.461Z,103016.59
2023-01-28T00:25:39.052Z,103054.56
2023-01-28T00:28:07.799Z,103068.53
2023-01-28T00:30:38.605Z,103050.81
2023-01-28T00:33:08.051Z,103100.81
2023-01-28T00:35:38.972Z,103045.84
2023-01-28T00:38:09.028Z,103012.34
2023-01-28T00:40:36.379Z,103029.69
2023-01-28T00:43:06.051Z,103105.09
2023-01-28T00:45:32.740Z,103069.53
2023-01-28T00:48:00.435Z,103041.31
2023-01-28T00:50:27.381Z,103050.16
2023-01-28T00:53:01.671Z,103029.09
2023-01-28T00:55:30.751Z,103050.78
2023-01-28T00:57:57.585Z,103080.13
2023-01-28T01:00:32.762Z,103016.47
2023-01-28T01:03:01.650Z,102977.97
2023-01-28T01:05:30.610Z,103049.41
2023-01-28T01:08:07.713Z,103031.03
2023-01-28T01:10:41.806Z,103057.41
2023-01-28T01:13:08.990Z,103094.38
2023-01-28T01:15:38.402Z,103061.00
2023-01-28T01:18:05.089Z,103056.66
2023-01-28T01:20:33.528Z,103081.50
2023-01-28T01:23:00.232Z,103066.59
2023-01-28T01:25:26.986Z,103042.91
2023-01-28T01:27:53.644Z,103032.50
2023-01-28T01:30:21.741Z,103063.50
2023-01-28T01:32:48.428Z,103054.81
2023-01-28T01:35:15.462Z,103083.31
2023-01-28T01:37:47.514Z,103079.94
2023-01-28T01:40:14.285Z,103039.53
2023-01-28T01:42:41.963Z,103011.88
2023-01-28T01:45:14.608Z,103064.78
2023-01-28T01:47:44.537Z,103088.09
2023-01-28T01:50:37.796Z,103074.00
2023-01-28T01:53:14.240Z,103088.59
2023-01-28T01:55:45.977Z,103040.47
2023-01-28T01:58:16.971Z,103084.66
2023-01-28T02:00:43.574Z,103060.88
2023-01-28T02:03:11.404Z,103062.03
2023-01-28T02:05:39.585Z,103094.59
2023-01-28T02:08:21.863Z,103047.16
2023-01-28T02:10:54.236Z,103031.44
2023-01-28T02:13:24.710Z,103070.97
2023-01-28T02:15:51.685Z,103057.16
2023-01-28T02:18:18.321Z,103072.13
2023-01-28T02:21:22.678Z,103107.38
2023-01-28T02:24:20.056Z,103075.91
2023-01-28T02:27:20.771Z,103104.09
2023-01-28T02:29:58.229Z,103102.50
2023-01-28T02:32:40.800Z,103094.53
2023-01-28T02:35:15.998Z,103060.13
2023-01-28T02:37:59.448Z,103080.56
2023-01-28T02:40:31.059Z,103087.84
2023-01-28T02:42:58.186Z,103076.44
2023-01-28T02:45:52.146Z,103103.03
2023-01-28T02:48:22.346Z,103078.53
2023-01-28T02:51:05.497Z,103069.66
2023-01-28T02:53:45.213Z,103096.97
2023-01-28T02:56:56.508Z,103120.63
2023-01-28T02:59:42.395Z,103118.16
2023-01-28T03:02:18.853Z,103092.63
2023-01-28T03:04:57.981Z,103121.72
2023-01-28T03:07:29.344Z,103090.66
2023-01-28T03:09:59.548Z,103118.06
2023-01-28T03:12:47.040Z,103094.19
2023-01-28T03:16:21.606Z,103132.31
2023-01-28T03:19:13.928Z,103125.91
2023-01-28T03:22:01.755Z,103140.16
2023-01-28T03:24:54.012Z,103077.09
2023-01-28T03:28:08.117Z,103136.91
2023-01-28T03:31:07.584Z,103105.03
2023-01-28T03:33:55.590Z,103095.59
2023-01-28T03:36:41.083Z,103126.59
2023-01-28T03:39:07.700Z,103105.28
2023-01-28T03:41:34.279Z,103103.34
2023-01-28T03:44:19.620Z,103105.28
2023-01-28T03:46:46.234Z,103117.50
2023-01-28T03:49:13.044Z,103133.56
2023-01-28T03:51:40.923Z,103096.50
2023-01-28T03:54:08.102Z,103149.25
2023-01-28T03:56:38.105Z,103141.50
2023-01-28T03:59:04.701Z,103106.81
2023-01-28T04:01:31.511Z,103142.13
2023-01-28T04:03:58.217Z,103129.72
2023-01-28T04:06:24.969Z,103124.41
2023-01-28T04:08:54.625Z,103131.59
2023-01-28T04:11:25.683Z,103124.41
2023-01-28T04:13:55.778Z,103098.25
2023-01-28T04:16:25.200Z,103101.81
2023-01-28T04:18:51.824Z,103094.72
2023-01-28T04:21:18.431Z,103098.31
2023-01-28T04:23:47.402Z,103106.19
2023-01-28T04:26:14.559Z,103122.09
2023-01-28T04:28:41.136Z,103138.09
2023-01-28T04:31:08.072Z,103108.94
2023-01-28T04:33:34.972Z,103131.75
2023-01-28T04:36:01.639Z,103107.94
2023-01-28T04:38:28.195Z,103120.41
2023-01-28T04:40:54.972Z,103101.91
2023-01-28T04:43:21.632Z,103112.50
2023-01-28T04:45:49.007Z,103108.06
2023-01-28T04:48:17.117Z,103108.13
2023-01-28T04:50:45.769Z,103114.72
2023-01-28T04:53:13.295Z,103132.38
2023-01-28T04:55:40.417Z,103098.78
2023-01-28T04:58:07.435Z,103069.72
2023-01-28T05:00:36.563Z,103117.25
2023-01-28T05:03:03.393Z,103105.94
2023-01-28T05:05:29.936Z,103062.69
2023-01-28T05:07:58.071Z,103132.38
2023-01-28T05:10:25.762Z,103133.19
2023-01-28T05:12:52.400Z,103110.97
2023-01-28T05:15:20.266Z,103132.22
2023-01-28T05:17:47.307Z,103127.06
2023-01-28T05:20:14.644Z,103080.56
2023-01-28T05:22:42.539Z,103089.38
2023-01-28T05:25:09.854Z,103113.78
2023-01-28T05:27:36.626Z,103089.94
2023-01-28T05:30:04.124Z,103121.53
2023-01-28T05:32:30.636Z,103110.84
2023-01-28T05:34:57.190Z,103090.34
2023-01-28T05:37:23.802Z,103091.19
2023-01-28T05:39:50.416Z,103105.16
2023-01-28T05:42:18.621Z,103112.69
2023-01-28T05:44:46.553Z,103136.50
2023-01-28T05:47:13.663Z,103114.66
2023-01-28T05:49:40.198Z,103090.53
2023-01-28T05:52:07.080Z,103101.13
2023-01-28T05:54:33.680Z,103127.38
2023-01-28T05:57:00.245Z,103134.56
2023-01-28T05:59:27.001Z,103106.13
2023-01-28T06:01:53.636Z,103117.47
2023-01-28T06:04:20.272Z,103134.34
2023-01-28T06:06:46.877Z,103086.59
2023-01-28T06:09:13.673Z,103070.63
2023-01-28T06:11:40.218Z,103130.69
2023-01-28T06:14:09.338Z,103065.22
2023-01-28T06:16:38.517Z,103095.97
2023-01-28T06:19:05.290Z,103133.00
2023-01-28T06:21:32.428Z,103102.81
2023-01-28T06:24:02.275Z,103131.19
2023-01-28T06:26:28.968Z,103096.78
2023-01-28T06:28:55.644Z,103100.31
2023-01-28T06:31:22.322Z,103156.75
2023-01-28T06:33:57.641Z,103125.97
2023-01-28T06:36:27.459Z,103075.63
2023-01-28T06:38:56.464Z,103124.06
2023-01-28T06:41:23.242Z,103120.88
2023-01-28T06:43:49.994Z,103123.16
2023-01-28T06:46:25.017Z,103100.72
2023-01-28T06:48:52.733Z,103086.22
2023-01-28T06:51:19.551Z,103082.97
2023-01-28T06:53:46.846Z,103086.97
2023-01-28T06:56:23.729Z,103109.91
2023-01-28T06:58:52.911Z,103094.88
2023-01-28T07:01:24.868Z,103084.44
2023-01-28T07:03:54.379Z,103119.16
2023-01-28T07:06:26.076Z,103099.63
2023-01-28T07:08:54.739Z,103146.03
2023-01-28T07:11:23.584Z,103104.75
2023-01-28T07:13:50.180Z,103105.41
2023-01-28T07:16:17.441Z,103125.13
2023-01-28T07:18:47.624Z,103137.22
2023-01-28T07:21:21.633Z,103087.09
2023-01-28T07:23:48.360Z,103101.06
2023-01-28T07:26:23.896Z,103098.16
2023-01-28T07:28:53.200Z,103121.81
2023-01-28T07:31:19.936Z,103165.34
2023-01-28T07:33:46.686Z,103136.06
2023-01-28T07:36:15.821Z,103115.94
2023-01-28T07:38:49.088Z,103139.56
2023-01-28T07:41:20.366Z,103103.84
2023-01-28T07:43:47.144Z,103140.59
2023-01-28T07:46:13.706Z,103174.84
2023-01-28T07:48:40.340Z,103121.97
2023-01-28T07:51:07.367Z,103108.75
2023-01-28T07:53:33.995Z,103111.50
2023-01-28T07:56:05.508Z,103103.44
2023-01-28T07:58:35.483Z,103093.66
2023-01-28T08:01:07.953Z,103095.53
2023-01-28T08:03:37.341Z,103123.84
2023-01-28T08:06:04.679Z,103124.47
2023-01-28T08:08:39.167Z,103094.59
2023-01-28T08:11:55.378Z,103117.69
2023-01-28T08:14:55.654Z,103107.16
2023-01-28T08:20:18.895Z,103136.34
2023-01-28T08:25:46.476Z,103125.00
2023-01-28T08:32:04.130Z,103144.66
2023-01-28T08:35:17.377Z,103178.44
2023-01-28T08:38:10.012Z,103087.41
2023-01-28T08:40:44.237Z,103105.41
2023-01-28T08:52:40.180Z,103095.81
2023-01-28T08:56:04.443Z,103096.00
2023-01-28T09:05:53.868Z,103215.84
2023-01-28T09:15:55.887Z,103110.97
2023-01-28T09:18:24.950Z,103163.97
2023-01-28T09:20:59.301Z,103130.63
2023-01-28T09:23:31.845Z,103137.78
2023-01-28T09:33:32.845Z,103135.84
2023-01-28T09:45:40.888Z,103163.84
2023-01-28T09:51:11.792Z,103126.56
2023-01-28T10:18:16.109Z,103155.72
2023-01-28T10:21:33.035Z,103194.69
2023-01-28T10:31:13.849Z,103131.22
2023-01-28T10:49:51.271Z,103108.31
2023-01-28T11:17:25.131Z,103071.28
2023-01-28T11:20:40.899Z,103070.00
2023-01-28T12:14:01.016Z,103144.69
2023-01-28T12:28:49.162Z,103146.75
2023-01-28T12:31:53.664Z,103144.91
2023-01-28T12:35:11.508Z,103132.72
2023-01-28T12:44:49.126Z,103109.22
2023-01-28T12:47:29.361Z,103046.03
2023-01-28T12:50:14.206Z,103037.22
2023-01-28T12:57:22.058Z,103115.84
2023-01-28T13:04:35.400Z,103064.88
2023-01-28T13:07:39.387Z,103090.22
2023-01-28T13:18:03.556Z,103080.47
2023-01-28T13:21:23.498Z,103017.31
2023-01-28T13:35:15.667Z,103065.22
2023-01-28T13:38:05.898Z,103013.34
2023-01-28T13:41:21.186Z,103000.88
2023-01-28T13:43:50.716Z,102975.41
2023-01-28T13:46:31.371Z,103030.88
2023-01-28T13:49:25.122Z,103003.78
2023-01-28T13:52:21.043Z,103008.19
2023-01-28T13:55:18.775Z,103041.66
2023-01-28T13:59:23.158Z,103061.78
2023-01-28T14:02:15.706Z,103072.94
2023-01-28T14:05:01.821Z,103072.13
2023-01-28T14:08:08.908Z,103062.50
2023-01-28T14:10:51.056Z,103063.34
2023-01-28T14:13:39.111Z,103029.94
2023-01-28T14:16:37.174Z,102987.97
2023-01-28T14:19:31.992Z,103049.38
2023-01-28T14:22:12.343Z,102953.81
2023-01-28T14:25:14.701Z,102960.91
2023-01-28T14:28:10.694Z,102954.66
2023-01-28T14:31:20.130Z,103046.06
2023-01-28T14:34:27.818Z,103008.44
2023-01-28T14:37:17.019Z,102966.16
2023-01-28T14:39:59.840Z,103037.13
2023-01-28T14:43:38.562Z,103044.97
2023-01-28T14:46:44.067Z,103010.63
2023-01-28T14:53:32.037Z,102989.50
2023-01-28T14:56:16.757Z,103032.44
2023-01-28T15:02:29.064Z,102979.50
2023-01-28T15:05:21.305Z,103042.56
2023-01-28T15:11:39.931Z,102994.19
2023-01-28T15:17:29.817Z,103044.94
2023-01-28T15:19:59.930Z,103046.63
2023-01-28T15:22:43.688Z,103009.56
2023-01-28T15:25:56.831Z,103076.38
2023-01-28T15:28:44.832Z,103090.22
2023-01-28T15:31:30.340Z,103060.25
2023-01-28T15:34:32.477Z,103067.22
2023-01-28T15:37:02.937Z,103048.75
2023-01-28T15:39:38.113Z,102997.00
2023-01-28T15:42:59.702Z,102999.59
2023-01-28T15:45:05.738Z,103053.13
2023-01-28T15:48:12.207Z,103051.31
2023-01-28T15:50:48.160Z,103015.31
2023-01-28T15:53:15.078Z,103018.78
2023-01-28T15:55:55.827Z,102991.63
2023-01-28T15:58:43.289Z,102991.63
2023-01-28T16:01:10.089Z,103055.97
2023-01-28T16:06:35.443Z,103022.34
2023-01-28T16:09:20.046Z,103022.38
2023-01-28T16:11:52.491Z,103024.09
2023-01-28T16:15:15.964Z,102960.94
2023-01-28T16:18:07.363Z,103007.38
2023-01-28T16:20:34.365Z,102986.31
2023-01-28T16:23:04.063Z,102969.63
2023-01-28T16:25:42.718Z,102959.00
2023-01-28T16:28:31.942Z,102949.38
2023-01-28T16:31:00.264Z,102994.84
2023-01-28T16:33:31.208Z,103000.78
2023-01-28T16:36:08.954Z,102999.69
2023-01-28T16:38:48.906Z,102988.94
2023-01-28T16:41:46.768Z,103020.53
2023-01-28T16:44:14.740Z,103042.47
2023-01-28T16:46:51.765Z,103060.84
2023-01-28T16:49:20.219Z,103023.03
2023-01-28T16:51:51.969Z,103021.28
2023-01-28T16:54:28.036Z,102981.84
2023-01-28T16:56:57.263Z,103007.09
2023-01-28T16:59:24.114Z,103073.00
2023-01-28T17:01:51.829Z,103003.47
2023-01-28T17:04:23.287Z,103059.47
2023-01-28T17:06:53.351Z,103034.00
2023-01-28T17:09:33.323Z,103003.94
2023-01-28T17:12:02.323Z,103068.84
2023-01-28T17:14:29.092Z,103031.91
2023-01-28T17:17:32.557Z,103078.47
2023-01-28T17:20:00.736Z,103071.34
2023-01-28T17:22:27.417Z,103075.72
2023-01-28T17:24:57.524Z,103043.88
2023-01-28T17:27:24.483Z,103063.25
2023-01-28T17:29:52.685Z,103003.44
2023-01-28T17:32:19.371Z,103034.16
2023-01-28T17:34:50.768Z,103019.25
2023-01-28T17:37:18.454Z,103044.53
2023-01-28T17:39:47.530Z,103081.44
2023-01-28T17:42:29.249Z,103068.19
2023-01-28T17:44:57.205Z,103073.44
2023-01-28T17:47:24.060Z,103058.25
2023-01-28T17:50:05.341Z,103061.91
2023-01-28T17:52:34.828Z,103006.50
2023-01-28T17:55:04.841Z,103082.84
2023-01-28T17:57:59.146Z,103058.06
2023-01-28T18:00:27.173Z,103038.72
2023-01-28T18:02:53.974Z,103045.69
2023-01-28T18:05:22.283Z,103064.13
2023-01-28T18:07:58.837Z,103057.88
2023-01-28T18:10:44.166Z,103051.72
2023-01-28T18:16:00.205Z,103018.31
2023-01-28T18:18:29.716Z,103060.44
2023-01-28T18:21:06.527Z,103060.44
2023-01-28T18:23:40.834Z,103041.16
2023-01-28T18:26:21.015Z,103041.16
2023-01-28T18:28:50.752Z,103077.91
2023-01-28T18:31:17.662Z,103034.88
2023-01-28T18:33:47.729Z,103078.84
2023-01-28T18:36:15.297Z,103114.06
2023-01-28T18:38:45.058Z,103083.28
2023-01-28T18:41:11.865Z,103081.44
2023-01-28T18:43:55.979Z,103098.06
2023-01-28T18:47:07.726Z,103114.84
2023-01-28T18:49:36.543Z,103051.38
2023-01-28T18:52:13.059Z,103031.25
2023-01-28T18:55:36.169Z,103034.00
2023-01-28T19:00:46.358Z,103047.09
2023-01-28T19:03:26.947Z,103074.50
2023-01-28T19:05:53.751Z,103028.59
2023-01-28T19:08:25.317Z,103081.44
2023-01-28T19:10:57.604Z,103109.47
2023-01-28T19:13:24.394Z,103068.84
2023-01-28T19:16:41.769Z,103022.28
2023-01-28T19:19:18.765Z,103047.94
2023-01-28T19:21:50.059Z,103038.22
2023-01-28T19:24:19.360Z,103072.44
2023-01-28T19:27:18.830Z,103024.13
2023-01-28T19:34:27.866Z,103035.72
2023-01-28T19:53:07.150Z,103007.66
2023-01-28T19:59:21.316Z,103091.78
2023-01-28T20:02:05.576Z,103070.59
2023-01-28T20:05:00.311Z,103053.13
2023-01-28T20:08:02.547Z,103017.22
2023-01-28T20:10:35.273Z,103069.81
2023-01-28T20:13:01.939Z,103000.50
2023-01-28T20:15:34.345Z,103005.56
2023-01-28T20:18:04.958Z,103071.53
2023-01-28T20:20:39.309Z,103055.47
2023-01-28T20:23:14.698Z,103045.81
2023-01-28T20:25:55.435Z,103040.63
2023-01-28T20:28:37.841Z,103070.31
2023-01-28T20:31:21.870Z,103040.28
2023-01-28T20:34:14.708Z,103055.19
2023-01-28T20:36:49.560Z,103075.59
2023-01-28T20:39:20.397Z,103054.41
2023-01-28T20:41:50.072Z,103102.66
2023-01-28T20:44:19.406Z,103056.16
2023-01-28T20:46:48.767Z,103010.53
2023-01-28T20:49:42.083Z,103026.13
2023-01-28T20:52:19.370Z,103082.34
2023-01-28T20:55:19.608Z,103061.22
2023-01-28T20:57:48.799Z,103094.41
2023-01-28T21:00:33.096Z,103080.38
2023-01-28T21:03:47.991Z,103095.31
2023-01-28T21:06:16.531Z,103097.78
2023-01-28T21:08:46.443Z,103092.41
2023-01-28T21:11:18.106Z,103093.28
2023-01-28T21:14:13.847Z,103066.13
2023-01-28T21:16:56.355Z,103025.69
2023-01-28T21:19:24.518Z,103027.53
2023-01-28T21:22:17.077Z,103025.75
2023-01-28T21:25:14.473Z,103091.59
2023-01-28T21:28:04.500Z,103062.03
2023-01-28T21:30:34.212Z,103070.66
2023-01-28T21:33:03.975Z,103054.09
2023-01-28T21:35:37.988Z,103033.94
2023-01-28T21:38:15.229Z,103002.25
2023-01-28T21:40:44.444Z,103082.06
2023-01-28T21:43:23.044Z,103013.38
2023-01-28T21:46:27.596Z,103002.94
2023-01-28T21:49:00.289Z,103051.94
2023-01-28T21:52:09.894Z,102997.56
2023-01-28T21:58:01.442Z,103010.72
2023-01-28T22:00:54.527Z,103075.84
2023-01-28T22:06:22.911Z,103019.53
2023-01-28T22:12:19.301Z,103045.13
2023-01-28T22:14:54.117Z,103011.72
2023-01-28T22:17:23.618Z,102996.84
2023-01-28T22:20:03.586Z,103044.25
2023-01-28T22:22:35.382Z,103023.19
2023-01-28T22:25:27.389Z,103001.03
2023-01-28T22:28:05.323Z,103038.78
2023-01-28T22:30:55.295Z,103053.63
2023-01-28T22:37:01.693Z,103031.16
2023-01-28T22:39:38.761Z,103013.75
2023-01-28T22:42:40.455Z,103013.69
2023-01-28T22:45:15.136Z,103023.03
2023-01-28T22:47:54.572Z,103032.84
2023-01-28T22:50:30.013Z,103026.75
2023-01-28T22:53:06.456Z,103000.97
2023-01-28T22:56:05.255Z,103014.06
2023-01-28T22:58:42.657Z,103018.25
2023-01-28T23:01:18.895Z,103039.56
2023-01-28T23:03:55.517Z,103056.16
2023-01-28T23:06:31.217Z,103111.50
2023-01-28T23:09:14.790Z,103046.84
2023-01-28T23:11:49.096Z,102996.09
2023-01-28T23:17:56.874Z,103012.94
2023-01-28T23:20:42.119Z,103009.63
2023-01-28T23:23:35.563Z,102966.63
2023-01-28T23:26:17.133Z,102992.19
2023-01-28T23:29:01.951Z,102972.88
2023-01-28T23:31:32.194Z,102978.91
2023-01-28T23:34:11.216Z,102938.47
2023-01-28T23:36:59.727Z,102944.56
2023-01-28T23:39:26.608Z,102940.34
2023-01-28T23:42:15.469Z,102950.03
2023-01-28T23:44:50.465Z,102976.53
2023-01-28T23:47:31.320Z,102941.31
2023-01-28T23:50:19.148Z,102990.47
2023-01-28T23:53:36.930Z,102927.91
2023-01-28T23:56:15.144Z,102931.53
2023-01-28T23:58:44.549Z,102946.56
